sensor_id;sensor_type;location;lat;lon;timestamp;temperature;humidity
69436;SHT31;56625;54.322;18.582;2022-08-21T00:02:03;21.64;87.71
69436;SHT31;56625;54.322;18.582;2022-08-21T00:04:40;21.64;87.59
69436;SHT31;56625;54.322;18.582;2022-08-21T00:07:24;21.67;87.52
69436;SHT31;56625;54.322;18.582;2022-08-21T00:09:53;21.65;87.51
69436;SHT31;56625;54.322;18.582;2022-08-21T00:12:21;21.60;87.60
69436;SHT31;56625;54.322;18.582;2022-08-21T00:14:49;21.57;87.61
69436;SHT31;56625;54.322;18.582;2022-08-21T00:17:23;21.59;87.60
69436;SHT31;56625;54.322;18.582;2022-08-21T00:19:51;21.62;87.37
69436;SHT31;56625;54.322;18.582;2022-08-21T00:22:19;21.67;87.12
69436;SHT31;56625;54.322;18.582;2022-08-21T00:24:47;21.67;87.09
69436;SHT31;56625;54.322;18.582;2022-08-21T00:27:18;21.65;87.01
69436;SHT31;56625;54.322;18.582;2022-08-21T00:29:45;21.71;86.84
69436;SHT31;56625;54.322;18.582;2022-08-21T00:32:18;21.72;86.52
69436;SHT31;56625;54.322;18.582;2022-08-21T00:34:49;21.76;86.24
69436;SHT31;56625;54.322;18.582;2022-08-21T00:37:19;21.75;85.85
69436;SHT31;56625;54.322;18.582;2022-08-21T00:39:47;21.74;85.77
69436;SHT31;56625;54.322;18.582;2022-08-21T00:42:16;21.70;85.70
69436;SHT31;56625;54.322;18.582;2022-08-21T00:44:45;21.67;85.72
69436;SHT31;56625;54.322;18.582;2022-08-21T00:47:17;21.66;85.70
69436;SHT31;56625;54.322;18.582;2022-08-21T00:49:46;21.67;85.83
69436;SHT31;56625;54.322;18.582;2022-08-21T00:52:15;21.67;85.73
69436;SHT31;56625;54.322;18.582;2022-08-21T00:54:52;21.70;85.65
69436;SHT31;56625;54.322;18.582;2022-08-21T00:57:26;21.70;85.56
69436;SHT31;56625;54.322;18.582;2022-08-21T01:00:01;21.70;85.57
69436;SHT31;56625;54.322;18.582;2022-08-21T01:02:37;21.72;85.65
69436;SHT31;56625;54.322;18.582;2022-08-21T01:05:06;21.74;85.69
69436;SHT31;56625;54.322;18.582;2022-08-21T01:07:34;21.79;85.68
69436;SHT31;56625;54.322;18.582;2022-08-21T01:10:03;21.73;85.66
69436;SHT31;56625;54.322;18.582;2022-08-21T01:12:33;21.62;85.81
69436;SHT31;56625;54.322;18.582;2022-08-21T01:15:03;21.55;86.08
69436;SHT31;56625;54.322;18.582;2022-08-21T01:17:35;21.50;86.20
69436;SHT31;56625;54.322;18.582;2022-08-21T01:20:06;21.46;86.22
69436;SHT31;56625;54.322;18.582;2022-08-21T01:22:38;21.42;86.26
69436;SHT31;56625;54.322;18.582;2022-08-21T01:25:07;21.39;86.27
69436;SHT31;56625;54.322;18.582;2022-08-21T01:27:39;21.38;86.43
69436;SHT31;56625;54.322;18.582;2022-08-21T01:32:51;21.34;86.74
69436;SHT31;56625;54.322;18.582;2022-08-21T01:35:21;21.33;86.80
69436;SHT31;56625;54.322;18.582;2022-08-21T01:37:49;21.32;86.83
69436;SHT31;56625;54.322;18.582;2022-08-21T01:40:17;21.31;86.87
69436;SHT31;56625;54.322;18.582;2022-08-21T01:42:46;21.30;86.85
69436;SHT31;56625;54.322;18.582;2022-08-21T01:45:15;21.28;86.80
69436;SHT31;56625;54.322;18.582;2022-08-21T01:47:43;21.28;86.89
69436;SHT31;56625;54.322;18.582;2022-08-21T01:50:12;21.28;86.92
69436;SHT31;56625;54.322;18.582;2022-08-21T01:52:44;21.26;87.03
69436;SHT31;56625;54.322;18.582;2022-08-21T01:55:13;21.25;87.06
69436;SHT31;56625;54.322;18.582;2022-08-21T01:57:43;21.24;87.09
69436;SHT31;56625;54.322;18.582;2022-08-21T02:00:13;21.23;87.08
69436;SHT31;56625;54.322;18.582;2022-08-21T02:02:46;21.20;87.13
69436;SHT31;56625;54.322;18.582;2022-08-21T02:05:14;21.18;87.30
69436;SHT31;56625;54.322;18.582;2022-08-21T02:07:44;21.17;87.40
69436;SHT31;56625;54.322;18.582;2022-08-21T02:10:18;21.12;87.45
69436;SHT31;56625;54.322;18.582;2022-08-21T02:12:51;21.11;87.45
69436;SHT31;56625;54.322;18.582;2022-08-21T02:15:19;21.09;87.54
69436;SHT31;56625;54.322;18.582;2022-08-21T02:17:52;21.08;87.50
69436;SHT31;56625;54.322;18.582;2022-08-21T02:20:25;21.10;87.43
69436;SHT31;56625;54.322;18.582;2022-08-21T02:23:04;21.08;87.34
69436;SHT31;56625;54.322;18.582;2022-08-21T02:25:35;21.05;87.34
69436;SHT31;56625;54.322;18.582;2022-08-21T02:28:08;21.03;87.38
69436;SHT31;56625;54.322;18.582;2022-08-21T02:30:42;21.02;87.26
69436;SHT31;56625;54.322;18.582;2022-08-21T02:33:14;21.00;87.27
69436;SHT31;56625;54.322;18.582;2022-08-21T02:35:44;20.99;87.27
69436;SHT31;56625;54.322;18.582;2022-08-21T02:38:15;21.00;87.32
69436;SHT31;56625;54.322;18.582;2022-08-21T02:40:48;21.00;87.29
69436;SHT31;56625;54.322;18.582;2022-08-21T02:43:19;21.01;87.26
69436;SHT31;56625;54.322;18.582;2022-08-21T02:45:50;21.01;87.27
69436;SHT31;56625;54.322;18.582;2022-08-21T02:48:21;21.01;87.31
69436;SHT31;56625;54.322;18.582;2022-08-21T02:50:53;21.02;87.33
69436;SHT31;56625;54.322;18.582;2022-08-21T02:53:29;21.02;87.37
69436;SHT31;56625;54.322;18.582;2022-08-21T02:55:59;21.03;87.47
69436;SHT31;56625;54.322;18.582;2022-08-21T02:58:32;21.05;87.54
69436;SHT31;56625;54.322;18.582;2022-08-21T03:01:06;21.03;87.72
69436;SHT31;56625;54.322;18.582;2022-08-21T03:03:37;21.01;87.82
69436;SHT31;56625;54.322;18.582;2022-08-21T03:06:09;20.99;87.81
69436;SHT31;56625;54.322;18.582;2022-08-21T03:08:41;20.98;88.00
69436;SHT31;56625;54.322;18.582;2022-08-21T03:11:12;20.97;88.05
69436;SHT31;56625;54.322;18.582;2022-08-21T03:13:42;20.97;88.05
69436;SHT31;56625;54.322;18.582;2022-08-21T03:16:10;20.97;87.99
69436;SHT31;56625;54.322;18.582;2022-08-21T03:18:38;20.98;87.96
69436;SHT31;56625;54.322;18.582;2022-08-21T03:21:06;20.99;87.96
69436;SHT31;56625;54.322;18.582;2022-08-21T03:23:34;20.99;87.91
69436;SHT31;56625;54.322;18.582;2022-08-21T03:26:03;21.00;87.90
69436;SHT31;56625;54.322;18.582;2022-08-21T03:28:31;21.01;87.87
69436;SHT31;56625;54.322;18.582;2022-08-21T03:30:59;21.02;87.87
69436;SHT31;56625;54.322;18.582;2022-08-21T03:33:27;21.01;87.89
69436;SHT31;56625;54.322;18.582;2022-08-21T03:35:59;21.03;87.82
69436;SHT31;56625;54.322;18.582;2022-08-21T03:38:33;21.04;87.83
69436;SHT31;56625;54.322;18.582;2022-08-21T03:41:05;21.06;87.74
69436;SHT31;56625;54.322;18.582;2022-08-21T03:43:34;21.08;87.70
69436;SHT31;56625;54.322;18.582;2022-08-21T03:46:03;21.08;87.74
69436;SHT31;56625;54.322;18.582;2022-08-21T03:48:34;21.08;87.80
69436;SHT31;56625;54.322;18.582;2022-08-21T03:51:04;21.08;87.74
69436;SHT31;56625;54.322;18.582;2022-08-21T03:53:34;21.09;87.71
69436;SHT31;56625;54.322;18.582;2022-08-21T03:56:02;21.13;87.63
69436;SHT31;56625;54.322;18.582;2022-08-21T03:58:31;21.12;87.60
69436;SHT31;56625;54.322;18.582;2022-08-21T04:01:00;21.14;87.53
69436;SHT31;56625;54.322;18.582;2022-08-21T04:03:28;21.15;87.52
69436;SHT31;56625;54.322;18.582;2022-08-21T04:05:56;21.13;87.57
69436;SHT31;56625;54.322;18.582;2022-08-21T04:08:24;21.11;87.61
69436;SHT31;56625;54.322;18.582;2022-08-21T04:10:54;21.11;87.60
69436;SHT31;56625;54.322;18.582;2022-08-21T04:13:25;21.12;87.62
69436;SHT31;56625;54.322;18.582;2022-08-21T04:15:55;21.12;87.54
69436;SHT31;56625;54.322;18.582;2022-08-21T04:18:25;21.14;87.49
69436;SHT31;56625;54.322;18.582;2022-08-21T04:20:54;21.17;87.49
69436;SHT31;56625;54.322;18.582;2022-08-21T04:23:26;21.16;87.49
69436;SHT31;56625;54.322;18.582;2022-08-21T04:25:55;21.13;87.53
69436;SHT31;56625;54.322;18.582;2022-08-21T04:28:24;21.11;87.53
69436;SHT31;56625;54.322;18.582;2022-08-21T04:30:57;21.10;87.63
69436;SHT31;56625;54.322;18.582;2022-08-21T04:33:25;21.08;87.64
69436;SHT31;56625;54.322;18.582;2022-08-21T04:35:53;21.09;87.67
69436;SHT31;56625;54.322;18.582;2022-08-21T04:38:21;21.11;87.54
69436;SHT31;56625;54.322;18.582;2022-08-21T04:40:49;21.13;87.44
69436;SHT31;56625;54.322;18.582;2022-08-21T04:43:18;21.13;87.46
69436;SHT31;56625;54.322;18.582;2022-08-21T04:45:51;21.14;87.46
69436;SHT31;56625;54.322;18.582;2022-08-21T04:48:21;21.13;87.49
69436;SHT31;56625;54.322;18.582;2022-08-21T04:50:53;21.14;87.47
69436;SHT31;56625;54.322;18.582;2022-08-21T04:54:02;21.15;87.41
69436;SHT31;56625;54.322;18.582;2022-08-21T04:56:40;21.17;87.31
69436;SHT31;56625;54.322;18.582;2022-08-21T04:59:17;21.20;87.21
69436;SHT31;56625;54.322;18.582;2022-08-21T05:01:50;21.24;87.11
69436;SHT31;56625;54.322;18.582;2022-08-21T05:04:20;21.26;86.97
69436;SHT31;56625;54.322;18.582;2022-08-21T05:06:54;21.30;86.92
69436;SHT31;56625;54.322;18.582;2022-08-21T05:09:27;21.34;86.78
69436;SHT31;56625;54.322;18.582;2022-08-21T05:11:56;21.40;86.73
69436;SHT31;56625;54.322;18.582;2022-08-21T05:14:25;21.47;86.58
69436;SHT31;56625;54.322;18.582;2022-08-21T05:16:54;21.49;86.34
69436;SHT31;56625;54.322;18.582;2022-08-21T05:19:22;21.50;86.31
69436;SHT31;56625;54.322;18.582;2022-08-21T05:21:50;21.56;86.29
69436;SHT31;56625;54.322;18.582;2022-08-21T05:24:18;21.58;86.00
69436;SHT31;56625;54.322;18.582;2022-08-21T05:26:47;21.61;85.96
69436;SHT31;56625;54.322;18.582;2022-08-21T05:29:16;21.63;85.98
69436;SHT31;56625;54.322;18.582;2022-08-21T05:31:45;21.66;85.76
69436;SHT31;56625;54.322;18.582;2022-08-21T05:34:15;21.68;85.64
69436;SHT31;56625;54.322;18.582;2022-08-21T05:36:49;21.68;85.53
69436;SHT31;56625;54.322;18.582;2022-08-21T05:39:17;21.66;85.47
69436;SHT31;56625;54.322;18.582;2022-08-21T05:41:45;21.68;85.50
69436;SHT31;56625;54.322;18.582;2022-08-21T05:44:13;21.66;85.28
69436;SHT31;56625;54.322;18.582;2022-08-21T05:46:41;21.63;85.33
69436;SHT31;56625;54.322;18.582;2022-08-21T05:49:09;21.61;85.41
69436;SHT31;56625;54.322;18.582;2022-08-21T05:51:39;21.57;85.50
69436;SHT31;56625;54.322;18.582;2022-08-21T05:54:09;21.56;85.50
69436;SHT31;56625;54.322;18.582;2022-08-21T05:56:38;21.57;85.44
69436;SHT31;56625;54.322;18.582;2022-08-21T05:59:06;21.60;85.43
69436;SHT31;56625;54.322;18.582;2022-08-21T06:01:35;21.64;85.41
69436;SHT31;56625;54.322;18.582;2022-08-21T06:04:04;21.67;85.22
69436;SHT31;56625;54.322;18.582;2022-08-21T06:06:33;21.66;85.20
69436;SHT31;56625;54.322;18.582;2022-08-21T06:09:02;21.65;85.19
69436;SHT31;56625;54.322;18.582;2022-08-21T06:11:32;21.64;85.21
69436;SHT31;56625;54.322;18.582;2022-08-21T06:14:01;21.64;85.13
69436;SHT31;56625;54.322;18.582;2022-08-21T06:16:29;21.62;85.14
69436;SHT31;56625;54.322;18.582;2022-08-21T06:18:57;21.61;85.23
69436;SHT31;56625;54.322;18.582;2022-08-21T06:21:29;21.62;85.21
69436;SHT31;56625;54.322;18.582;2022-08-21T06:23:57;21.65;85.26
69436;SHT31;56625;54.322;18.582;2022-08-21T06:26:25;21.72;85.20
69436;SHT31;56625;54.322;18.582;2022-08-21T06:28:53;21.78;85.01
69436;SHT31;56625;54.322;18.582;2022-08-21T06:31:22;21.81;84.88
69436;SHT31;56625;54.322;18.582;2022-08-21T06:33:54;21.81;84.84
69436;SHT31;56625;54.322;18.582;2022-08-21T06:36:22;21.77;84.94
69436;SHT31;56625;54.322;18.582;2022-08-21T06:38:50;21.75;85.11
69436;SHT31;56625;54.322;18.582;2022-08-21T06:41:19;21.74;85.14
69436;SHT31;56625;54.322;18.582;2022-08-21T06:43:53;21.72;85.24
69436;SHT31;56625;54.322;18.582;2022-08-21T06:46:23;21.74;85.26
69436;SHT31;56625;54.322;18.582;2022-08-21T06:48:54;21.72;85.25
69436;SHT31;56625;54.322;18.582;2022-08-21T06:51:23;21.70;85.26
69436;SHT31;56625;54.322;18.582;2022-08-21T06:53:53;21.68;85.28
69436;SHT31;56625;54.322;18.582;2022-08-21T06:56:22;21.66;85.35
69436;SHT31;56625;54.322;18.582;2022-08-21T06:58:50;21.63;85.44
69436;SHT31;56625;54.322;18.582;2022-08-21T07:01:20;21.58;85.65
69436;SHT31;56625;54.322;18.582;2022-08-21T07:03:52;21.52;85.81
69436;SHT31;56625;54.322;18.582;2022-08-21T07:06:20;21.46;85.90
69436;SHT31;56625;54.322;18.582;2022-08-21T07:08:48;21.42;85.82
69436;SHT31;56625;54.322;18.582;2022-08-21T07:11:23;21.40;85.73
69436;SHT31;56625;54.322;18.582;2022-08-21T07:13:52;21.40;85.73
69436;SHT31;56625;54.322;18.582;2022-08-21T07:16:22;21.40;85.50
69436;SHT31;56625;54.322;18.582;2022-08-21T07:18:51;21.41;85.56
69436;SHT31;56625;54.322;18.582;2022-08-21T07:21:19;21.42;85.59
69436;SHT31;56625;54.322;18.582;2022-08-21T07:23:53;21.46;85.39
69436;SHT31;56625;54.322;18.582;2022-08-21T07:26:23;21.44;85.18
69436;SHT31;56625;54.322;18.582;2022-08-21T07:29:06;21.44;85.03
69436;SHT31;56625;54.322;18.582;2022-08-21T07:31:35;21.41;85.02
69436;SHT31;56625;54.322;18.582;2022-08-21T07:34:03;21.35;85.03
69436;SHT31;56625;54.322;18.582;2022-08-21T07:36:32;21.26;85.16
69436;SHT31;56625;54.322;18.582;2022-08-21T07:39:09;21.18;85.36
69436;SHT31;56625;54.322;18.582;2022-08-21T07:41:56;21.08;85.67
69436;SHT31;56625;54.322;18.582;2022-08-21T07:44:24;21.01;85.96
69436;SHT31;56625;54.322;18.582;2022-08-21T07:47:07;21.02;86.04
69436;SHT31;56625;54.322;18.582;2022-08-21T07:49:39;21.08;85.92
69436;SHT31;56625;54.322;18.582;2022-08-21T07:52:07;21.10;85.80
69436;SHT31;56625;54.322;18.582;2022-08-21T07:54:35;21.11;85.94
69436;SHT31;56625;54.322;18.582;2022-08-21T07:57:03;21.17;85.90
69436;SHT31;56625;54.322;18.582;2022-08-21T07:59:32;21.18;85.69
69436;SHT31;56625;54.322;18.582;2022-08-21T08:02:00;21.13;85.86
69436;SHT31;56625;54.322;18.582;2022-08-21T08:04:32;21.18;86.03
69436;SHT31;56625;54.322;18.582;2022-08-21T08:07:09;21.28;85.82
69436;SHT31;56625;54.322;18.582;2022-08-21T08:09:45;21.36;85.42
69436;SHT31;56625;54.322;18.582;2022-08-21T08:12:33;21.49;85.46
69436;SHT31;56625;54.322;18.582;2022-08-21T08:15:20;21.66;85.01
69436;SHT31;56625;54.322;18.582;2022-08-21T08:18:05;21.74;84.57
69436;SHT31;56625;54.322;18.582;2022-08-21T08:21:11;21.72;84.59
69436;SHT31;56625;54.322;18.582;2022-08-21T08:24:38;21.74;84.50
69436;SHT31;56625;54.322;18.582;2022-08-21T08:27:30;21.83;84.44
69436;SHT31;56625;54.322;18.582;2022-08-21T08:30:21;21.89;83.80
69436;SHT31;56625;54.322;18.582;2022-08-21T08:33:45;21.90;83.90
69436;SHT31;56625;54.322;18.582;2022-08-21T08:37:29;21.97;83.79
69436;SHT31;56625;54.322;18.582;2022-08-21T08:44:01;22.03;83.13
69436;SHT31;56625;54.322;18.582;2022-08-21T08:46:43;22.02;83.38
69436;SHT31;56625;54.322;18.582;2022-08-21T08:49:20;22.12;83.17
69436;SHT31;56625;54.322;18.582;2022-08-21T08:52:01;22.15;82.95
69436;SHT31;56625;54.322;18.582;2022-08-21T08:54:41;22.17;82.89
69436;SHT31;56625;54.322;18.582;2022-08-21T08:57:17;22.28;83.17
69436;SHT31;56625;54.322;18.582;2022-08-21T08:59:51;22.43;82.31
69436;SHT31;56625;54.322;18.582;2022-08-21T09:02:26;22.49;81.72
69436;SHT31;56625;54.322;18.582;2022-08-21T09:05:04;22.51;81.70
69436;SHT31;56625;54.322;18.582;2022-08-21T09:07:40;22.53;81.95
69436;SHT31;56625;54.322;18.582;2022-08-21T09:10:55;22.64;81.49
69436;SHT31;56625;54.322;18.582;2022-08-21T09:13:38;22.65;81.43
69436;SHT31;56625;54.322;18.582;2022-08-21T09:16:37;22.68;81.41
69436;SHT31;56625;54.322;18.582;2022-08-21T09:22:39;22.78;81.21
69436;SHT31;56625;54.322;18.582;2022-08-21T09:25:54;22.72;80.72
69436;SHT31;56625;54.322;18.582;2022-08-21T09:28:35;22.62;80.80
69436;SHT31;56625;54.322;18.582;2022-08-21T09:31:08;22.57;80.96
69436;SHT31;56625;54.322;18.582;2022-08-21T09:33:57;22.53;81.03
69436;SHT31;56625;54.322;18.582;2022-08-21T09:36:35;22.42;81.01
69436;SHT31;56625;54.322;18.582;2022-08-21T09:39:10;22.27;81.25
69436;SHT31;56625;54.322;18.582;2022-08-21T09:41:40;22.16;81.71
69436;SHT31;56625;54.322;18.582;2022-08-21T09:44:09;22.15;81.94
69436;SHT31;56625;54.322;18.582;2022-08-21T09:46:37;22.16;82.01
69436;SHT31;56625;54.322;18.582;2022-08-21T09:49:05;22.14;81.87
69436;SHT31;56625;54.322;18.582;2022-08-21T09:51:49;22.14;82.27
69436;SHT31;56625;54.322;18.582;2022-08-21T09:54:23;22.15;82.26
69436;SHT31;56625;54.322;18.582;2022-08-21T09:59:55;22.19;82.21
69436;SHT31;56625;54.322;18.582;2022-08-21T10:02:31;22.16;82.04
69436;SHT31;56625;54.322;18.582;2022-08-21T10:05:24;22.05;82.35
69436;SHT31;56625;54.322;18.582;2022-08-21T10:07:55;21.91;83.03
69436;SHT31;56625;54.322;18.582;2022-08-21T10:10:27;21.86;83.29
69436;SHT31;56625;54.322;18.582;2022-08-21T10:15:56;21.70;83.21
69436;SHT31;56625;54.322;18.582;2022-08-21T10:19:18;21.76;83.14
69436;SHT31;56625;54.322;18.582;2022-08-21T10:25:23;21.90;82.14
69436;SHT31;56625;54.322;18.582;2022-08-21T10:30:46;22.03;81.53
69436;SHT31;56625;54.322;18.582;2022-08-21T10:33:29;22.07;81.52
69436;SHT31;56625;54.322;18.582;2022-08-21T10:36:13;22.04;81.36
69436;SHT31;56625;54.322;18.582;2022-08-21T10:39:02;22.08;81.05
69436;SHT31;56625;54.322;18.582;2022-08-21T10:42:06;22.08;81.11
69436;SHT31;56625;54.322;18.582;2022-08-21T10:45:07;22.03;80.97
69436;SHT31;56625;54.322;18.582;2022-08-21T10:47:56;21.87;81.33
69436;SHT31;56625;54.322;18.582;2022-08-21T10:50:43;21.83;82.20
69436;SHT31;56625;54.322;18.582;2022-08-21T10:53:22;21.85;81.92
69436;SHT31;56625;54.322;18.582;2022-08-21T11:01:42;21.86;81.91
69436;SHT31;56625;54.322;18.582;2022-08-21T11:04:23;21.76;81.25
69436;SHT31;56625;54.322;18.582;2022-08-21T11:07:19;21.61;81.03
69436;SHT31;56625;54.322;18.582;2022-08-21T11:10:08;21.55;80.73
69436;SHT31;56625;54.322;18.582;2022-08-21T11:16:42;21.52;80.14
69436;SHT31;56625;54.322;18.582;2022-08-21T11:22:35;21.35;79.96
69436;SHT31;56625;54.322;18.582;2022-08-21T11:25:31;21.26;80.29
69436;SHT31;56625;54.322;18.582;2022-08-21T11:31:34;21.09;81.17
69436;SHT31;56625;54.322;18.582;2022-08-21T11:37:42;21.11;81.60
69436;SHT31;56625;54.322;18.582;2022-08-21T11:47:02;21.12;81.69
69436;SHT31;56625;54.322;18.582;2022-08-21T11:52:30;20.98;82.11
69436;SHT31;56625;54.322;18.582;2022-08-21T11:55:14;20.97;82.43
69436;SHT31;56625;54.322;18.582;2022-08-21T11:57:55;21.03;82.38
69436;SHT31;56625;54.322;18.582;2022-08-21T12:00:50;21.18;82.08
69436;SHT31;56625;54.322;18.582;2022-08-21T12:06:06;21.42;81.78
69436;SHT31;56625;54.322;18.582;2022-08-21T12:08:57;21.45;81.06
69436;SHT31;56625;54.322;18.582;2022-08-21T12:11:29;21.45;81.01
69436;SHT31;56625;54.322;18.582;2022-08-21T12:13:59;21.45;80.76
69436;SHT31;56625;54.322;18.582;2022-08-21T12:16:45;21.41;80.84
69436;SHT31;56625;54.322;18.582;2022-08-21T12:24:33;21.43;79.29
69436;SHT31;56625;54.322;18.582;2022-08-21T12:27:30;21.53;78.90
69436;SHT31;56625;54.322;18.582;2022-08-21T12:30:20;21.66;78.65
69436;SHT31;56625;54.322;18.582;2022-08-21T12:33:05;21.69;77.78
69436;SHT31;56625;54.322;18.582;2022-08-21T12:35:48;21.68;77.74
69436;SHT31;56625;54.322;18.582;2022-08-21T12:38:22;21.63;77.81
69436;SHT31;56625;54.322;18.582;2022-08-21T12:41:06;21.56;78.05
69436;SHT31;56625;54.322;18.582;2022-08-21T12:43:47;21.43;78.34
69436;SHT31;56625;54.322;18.582;2022-08-21T12:46:32;21.24;79.19
69436;SHT31;56625;54.322;18.582;2022-08-21T12:49:15;21.08;79.99
69436;SHT31;56625;54.322;18.582;2022-08-21T12:51:59;21.00;80.35
69436;SHT31;56625;54.322;18.582;2022-08-21T12:54:39;20.97;80.48
69436;SHT31;56625;54.322;18.582;2022-08-21T12:57:45;21.00;80.53
69436;SHT31;56625;54.322;18.582;2022-08-21T13:00:11;21.13;80.64
69436;SHT31;56625;54.322;18.582;2022-08-21T13:02:43;21.23;80.44
69436;SHT31;56625;54.322;18.582;2022-08-21T13:05:26;21.20;80.62
69436;SHT31;56625;54.322;18.582;2022-08-21T13:07:57;21.05;80.91
69436;SHT31;56625;54.322;18.582;2022-08-21T13:10:31;20.90;81.33
69436;SHT31;56625;54.322;18.582;2022-08-21T13:13:04;20.85;81.66
69436;SHT31;56625;54.322;18.582;2022-08-21T13:15:42;20.94;81.47
69436;SHT31;56625;54.322;18.582;2022-08-21T13:18:24;21.03;80.87
69436;SHT31;56625;54.322;18.582;2022-08-21T13:21:04;21.03;80.39
69436;SHT31;56625;54.322;18.582;2022-08-21T13:23:40;20.92;79.91
69436;SHT31;56625;54.322;18.582;2022-08-21T13:26:15;20.78;79.70
69436;SHT31;56625;54.322;18.582;2022-08-21T13:28:49;20.65;79.54
69436;SHT31;56625;54.322;18.582;2022-08-21T13:31:20;20.52;79.49
69436;SHT31;56625;54.322;18.582;2022-08-21T13:33:55;20.48;80.11
69436;SHT31;56625;54.322;18.582;2022-08-21T13:36:25;20.51;80.21
69436;SHT31;56625;54.322;18.582;2022-08-21T13:39:05;20.49;79.97
69436;SHT31;56625;54.322;18.582;2022-08-21T13:41:40;20.46;80.34
69436;SHT31;56625;54.322;18.582;2022-08-21T13:44:19;20.43;80.41
69436;SHT31;56625;54.322;18.582;2022-08-21T13:46:53;20.35;80.39
69436;SHT31;56625;54.322;18.582;2022-08-21T13:49:30;20.28;80.57
69436;SHT31;56625;54.322;18.582;2022-08-21T13:52:03;20.31;81.05
69436;SHT31;56625;54.322;18.582;2022-08-21T13:54:52;20.35;80.93
69436;SHT31;56625;54.322;18.582;2022-08-21T13:57:26;20.40;81.27
69436;SHT31;56625;54.322;18.582;2022-08-21T14:03:08;20.36;80.96
69436;SHT31;56625;54.322;18.582;2022-08-21T14:05:43;20.22;81.09
69436;SHT31;56625;54.322;18.582;2022-08-21T14:08:27;20.08;81.31
69436;SHT31;56625;54.322;18.582;2022-08-21T14:11:10;19.99;81.83
69436;SHT31;56625;54.322;18.582;2022-08-21T14:16:42;20.09;82.09
69436;SHT31;56625;54.322;18.582;2022-08-21T14:19:26;20.07;81.91
69436;SHT31;56625;54.322;18.582;2022-08-21T14:25:26;19.95;81.29
69436;SHT31;56625;54.322;18.582;2022-08-21T14:28:13;19.83;81.56
69436;SHT31;56625;54.322;18.582;2022-08-21T14:30:55;19.79;81.97
69436;SHT31;56625;54.322;18.582;2022-08-21T14:33:29;19.81;81.94
69436;SHT31;56625;54.322;18.582;2022-08-21T14:36:00;19.83;82.03
69436;SHT31;56625;54.322;18.582;2022-08-21T14:38:29;19.87;82.12
69436;SHT31;56625;54.322;18.582;2022-08-21T14:40:59;19.93;82.02
69436;SHT31;56625;54.322;18.582;2022-08-21T14:43:47;19.95;81.88
69436;SHT31;56625;54.322;18.582;2022-08-21T14:46:30;19.94;82.05
69436;SHT31;56625;54.322;18.582;2022-08-21T14:49:05;19.88;82.14
69436;SHT31;56625;54.322;18.582;2022-08-21T14:51:33;19.88;82.19
69436;SHT31;56625;54.322;18.582;2022-08-21T14:54:01;19.89;82.30
69436;SHT31;56625;54.322;18.582;2022-08-21T14:56:30;19.85;82.11
69436;SHT31;56625;54.322;18.582;2022-08-21T14:59:01;19.82;81.90
69436;SHT31;56625;54.322;18.582;2022-08-21T15:01:34;19.77;81.34
69436;SHT31;56625;54.322;18.582;2022-08-21T15:04:06;19.73;80.46
69436;SHT31;56625;54.322;18.582;2022-08-21T15:06:34;19.64;78.91
69436;SHT31;56625;54.322;18.582;2022-08-21T15:09:02;19.60;78.99
69436;SHT31;56625;54.322;18.582;2022-08-21T15:11:32;19.56;78.53
69436;SHT31;56625;54.322;18.582;2022-08-21T15:14:10;19.47;78.12
69436;SHT31;56625;54.322;18.582;2022-08-21T15:16:47;19.40;78.69
69436;SHT31;56625;54.322;18.582;2022-08-21T15:19:17;19.34;79.30
69436;SHT31;56625;54.322;18.582;2022-08-21T15:21:47;19.33;79.77
69436;SHT31;56625;54.322;18.582;2022-08-21T15:24:16;19.30;79.92
69436;SHT31;56625;54.322;18.582;2022-08-21T15:26:44;19.26;80.32
69436;SHT31;56625;54.322;18.582;2022-08-21T15:29:13;19.26;80.67
69436;SHT31;56625;54.322;18.582;2022-08-21T15:31:50;19.23;81.05
69436;SHT31;56625;54.322;18.582;2022-08-21T15:34:43;19.24;82.01
69436;SHT31;56625;54.322;18.582;2022-08-21T15:37:11;19.26;82.03
69436;SHT31;56625;54.322;18.582;2022-08-21T15:39:40;19.23;81.95
69436;SHT31;56625;54.322;18.582;2022-08-21T15:42:08;19.20;82.18
69436;SHT31;56625;54.322;18.582;2022-08-21T15:44:39;19.19;82.35
69436;SHT31;56625;54.322;18.582;2022-08-21T15:47:17;19.15;82.61
69436;SHT31;56625;54.322;18.582;2022-08-21T15:49:49;19.14;82.79
69436;SHT31;56625;54.322;18.582;2022-08-21T15:52:19;19.17;82.69
69436;SHT31;56625;54.322;18.582;2022-08-21T15:54:49;19.22;82.83
69436;SHT31;56625;54.322;18.582;2022-08-21T15:57:19;19.25;82.87
69436;SHT31;56625;54.322;18.582;2022-08-21T15:59:51;19.18;83.07
69436;SHT31;56625;54.322;18.582;2022-08-21T16:02:41;19.09;83.75
69436;SHT31;56625;54.322;18.582;2022-08-21T16:05:13;19.04;84.04
69436;SHT31;56625;54.322;18.582;2022-08-21T16:07:45;18.99;84.50
69436;SHT31;56625;54.322;18.582;2022-08-21T16:10:16;18.96;84.57
69436;SHT31;56625;54.322;18.582;2022-08-21T16:12:50;18.96;84.55
69436;SHT31;56625;54.322;18.582;2022-08-21T16:15:26;18.97;84.57
69436;SHT31;56625;54.322;18.582;2022-08-21T16:17:55;18.95;84.61
69436;SHT31;56625;54.322;18.582;2022-08-21T16:20:25;18.91;84.77
69436;SHT31;56625;54.322;18.582;2022-08-21T16:22:56;18.89;84.73
69436;SHT31;56625;54.322;18.582;2022-08-21T16:25:26;18.87;84.70
69436;SHT31;56625;54.322;18.582;2022-08-21T16:27:55;18.85;84.78
69436;SHT31;56625;54.322;18.582;2022-08-21T16:30:29;18.85;84.85
69436;SHT31;56625;54.322;18.582;2022-08-21T16:32:59;18.87;84.79
69436;SHT31;56625;54.322;18.582;2022-08-21T16:35:30;18.86;84.56
69436;SHT31;56625;54.322;18.582;2022-08-21T16:38:00;18.88;84.52
69436;SHT31;56625;54.322;18.582;2022-08-21T16:40:28;18.85;84.28
69436;SHT31;56625;54.322;18.582;2022-08-21T16:42:57;18.82;84.70
69436;SHT31;56625;54.322;18.582;2022-08-21T16:45:25;18.82;84.75
69436;SHT31;56625;54.322;18.582;2022-08-21T16:47:59;18.83;84.71
69436;SHT31;56625;54.322;18.582;2022-08-21T16:50:28;18.86;84.71
69436;SHT31;56625;54.322;18.582;2022-08-21T16:52:56;18.92;84.59
69436;SHT31;56625;54.322;18.582;2022-08-21T16:55:25;18.94;84.53
69436;SHT31;56625;54.322;18.582;2022-08-21T16:57:53;18.99;84.52
69436;SHT31;56625;54.322;18.582;2022-08-21T17:00:23;19.02;84.58
69436;SHT31;56625;54.322;18.582;2022-08-21T17:02:56;19.09;84.46
69436;SHT31;56625;54.322;18.582;2022-08-21T17:05:25;19.15;84.59
69436;SHT31;56625;54.322;18.582;2022-08-21T17:07:53;19.20;84.35
69436;SHT31;56625;54.322;18.582;2022-08-21T17:10:22;19.15;84.12